Brier Hill, NY (13614)

10:04 PM EDT on September 20, 2014 (GMT -0400)
St. Lawrence River shoreline | Change Station
CLOSE
Current Station
Personal Weather Station
Location: Brockville, ONTARIO
Elevation: 285 ft
Nearby Weather Stations

Elev 285 ft 44.54 °N, 75.76 °W | Updated 4 seconds ago

Partly Cloudy
Partly Cloudy
66.9 °F
Feels Like 66.9 °F
N
10.1
Wind Variable Wind from South
Gusts 13.0 mph

Today
High -- | Low -- °F
--% Chance of Precip.
Yesterday
High -- | Low -- °F
Precip. -- in
6:47 AM 7:04 PM
Waning Crescent, 9% visible
Pressure 29.88 in
Visibility 10.0 miles
Clouds Clear
Dew Point 62 °F
Humidity 84%
Rainfall 0.00 in
Snow Depth Not available.
UV 0.0 out of 12
Pollen 3.50 out of 12
Air Quality Not available.
Flu Activity Not available.
METAR KGTB 210158Z AUTO 18012KT 10SM CLR 19/13 A2988 RMK AO2 SLP117 T01930131

More Conditions Fewer Conditions

Pressure 29.88 in
Visibility 10.0 miles
Clouds Clear
Dew Point 62 °F
Humidity 84%
Rainfall 0.00 in
Snow Depth Not available.
UV 0.0 out of 12
Pollen 3.50 out of 12
Air Quality Not available.
Flu Activity Not available.
METAR KGTB 210158Z AUTO 18012KT 10SM CLR 19/13 A2988 RMK AO2 SLP117 T01930131

More Conditions Fewer Conditions

10-Day Weather Forecast

Almanac

Astronomy

Sep. 20, 2014 Rise Set
Actual Time 6:47 AM EDT 7:04 PM EDT
Civil Twilight 6:18 AM EDT 7:33 PM EDT
Nautical Twilight 5:44 AM EDT 8:07 PM EDT
Astronomical Twilight 5:08 AM EDT 8:42 PM EDT
Moon 3:18 AM EDT (9/20) 5:11 PM EDT (9/20)
Length of Visible Light 13h 14m
Length of Day
12h 16m
Tomorrow will be 3m 3s shorter.
Waning Crescent, 9% of the Moon is Illuminated
Today
Waning Crescent
Sep 24
New
Oct 1
First Quarter
Oct 8
Full
Oct 15
Last Quarter

Today's Extremes

State Highs State Lows

Community

WunderPhotos

Upload Photos

1,755,032 photos uploaded!

WunderBlogs® & News

Nearby

Air Quality

  Air Quality AQ Index Pollutant
Saturday Good
OZONE
Saturday Good
PM2.5
Sunday Good
OZONE
Sunday Good
PM2.5
Monday Good
OZONE
Monday Good
PM2.5

Snow Depth

Station Depth Elevation
No new snow has been reported.

Earthquake Activity

City Distance Mag. Time & Date
No recent earthquake activity has been reported nearby.
Minimum magnitude displayed is 2.5.

Coastal Water Temperatures

Place Temperature
Alexandria Bay, NY 64.9 °F
Ogdensburg, NY 64.9 °F

Nearby Weather Stations